createdAt,value
2016-11-19T00:00:49.060Z,-51
2016-11-19T00:01:49.139Z,-50
2016-11-19T00:02:49.064Z,-50
2016-11-19T00:03:49.026Z,-50
2016-11-19T00:04:48.996Z,-51
2016-11-19T00:05:49.028Z,-49
2016-11-19T00:06:49.039Z,-50
2016-11-19T00:07:49.015Z,-47
2016-11-19T00:08:49.037Z,-51
2016-11-19T00:09:49.013Z,-49
2016-11-19T00:10:49.243Z,-51
2016-11-19T00:11:49.223Z,-50
2016-11-19T00:12:49.208Z,-51
2016-11-19T00:13:49.477Z,-51
2016-11-19T00:14:49.265Z,-53
2016-11-19T00:15:49.071Z,-51
2016-11-19T00:16:49.121Z,-50
2016-11-19T00:17:49.172Z,-49
2016-11-19T00:18:49.281Z,-51
2016-11-19T00:19:49.084Z,-49
2016-11-19T00:20:49.188Z,-51
2016-11-19T00:21:49.180Z,-51
2016-11-19T00:22:49.175Z,-50
2016-11-19T00:23:49.061Z,-50
2016-11-19T00:24:49.560Z,-50
2016-11-19T00:25:49.099Z,-51
2016-11-19T00:26:49.092Z,-50
2016-11-19T00:27:49.097Z,-50
2016-11-19T00:28:49.459Z,-50
2016-11-19T00:29:49.292Z,-50
2016-11-19T00:30:49.321Z,-50
2016-11-19T00:31:49.097Z,-50
2016-11-19T00:32:49.180Z,-50
2016-11-19T00:33:49.135Z,-49
2016-11-19T00:34:49.122Z,-50
2016-11-19T00:35:49.235Z,-50
2016-11-19T00:36:49.077Z,-48
2016-11-19T00:37:49.227Z,-50
2016-11-19T00:38:49.109Z,-51
2016-11-19T00:39:49.207Z,-50
2016-11-19T00:40:49.072Z,-49
2016-11-19T00:41:49.119Z,-50
2016-11-19T00:42:49.048Z,-49
2016-11-19T00:43:49.032Z,-50
2016-11-19T00:44:49.020Z,-50
2016-11-19T00:45:49.052Z,-51
2016-11-19T00:46:49.058Z,-51
2016-11-19T00:47:49.066Z,-51
2016-11-19T00:48:49.078Z,-50
2016-11-19T00:49:49.223Z,-50
2016-11-19T00:50:49.042Z,-50
2016-11-19T00:51:49.136Z,-51
2016-11-19T00:52:49.047Z,-51
2016-11-19T00:53:49.052Z,-51
2016-11-19T00:54:49.072Z,-50
2016-11-19T00:55:49.057Z,-50
2016-11-19T00:56:49.061Z,-50
2016-11-19T00:57:49.134Z,-50
2016-11-19T00:58:49.031Z,-50
2016-11-19T00:59:49.161Z,-50
2016-11-19T01:00:49.105Z,-51
2016-11-19T01:01:49.116Z,-49
2016-11-19T01:02:49.135Z,-50
2016-11-19T01:03:49.145Z,-50
2016-11-19T01:04:49.136Z,-50
2016-11-19T01:05:49.146Z,-50
2016-11-19T01:06:49.212Z,-51
2016-11-19T01:07:49.204Z,-50
2016-11-19T01:08:49.134Z,-50
2016-11-19T01:09:49.099Z,-52
2016-11-19T01:10:49.139Z,-50
2016-11-19T01:11:49.183Z,-51
2016-11-19T01:12:49.090Z,-50
2016-11-19T01:13:49.114Z,-51
2016-11-19T01:14:49.075Z,-51
2016-11-19T01:15:49.156Z,-50
2016-11-19T01:16:49.156Z,-50
2016-11-19T01:17:49.149Z,-47
2016-11-19T01:18:49.148Z,-50
2016-11-19T01:19:49.202Z,-50
2016-11-19T01:20:49.145Z,-50
2016-11-19T01:21:49.109Z,-51
2016-11-19T01:22:49.806Z,-51
2016-11-19T01:23:49.158Z,-50
2016-11-19T01:24:49.658Z,-50
2016-11-19T01:25:49.142Z,-50
2016-11-19T01:26:49.166Z,-50
2016-11-19T01:27:49.182Z,-50
2016-11-19T01:28:49.132Z,-50
2016-11-19T01:29:49.272Z,-50
2016-11-19T01:30:49.276Z,-50
2016-11-19T01:31:49.268Z,-50
2016-11-19T01:32:49.176Z,-50
2016-11-19T01:33:49.139Z,-50
2016-11-19T01:34:49.208Z,-51
2016-11-19T01:35:49.221Z,-52
2016-11-19T01:36:49.406Z,-51
2016-11-19T01:37:49.234Z,-51
2016-11-19T01:38:49.267Z,-51
2016-11-19T01:39:49.259Z,-51
2016-11-19T01:40:49.176Z,-48
2016-11-19T01:41:49.200Z,-50
2016-11-19T01:42:49.146Z,-50
2016-11-19T01:43:49.135Z,-51
2016-11-19T01:44:49.166Z,-50
2016-11-19T01:45:49.167Z,-50
2016-11-19T01:46:49.227Z,-50
2016-11-19T01:47:49.782Z,-50
2016-11-19T01:48:49.275Z,-51
2016-11-19T01:49:49.224Z,-50
2016-11-19T01:50:49.244Z,-50
2016-11-19T01:51:49.310Z,-50
2016-11-19T01:52:49.301Z,-50
2016-11-19T01:53:49.174Z,-50
2016-11-19T01:54:49.201Z,-51
2016-11-19T01:55:49.281Z,-49
2016-11-19T01:56:49.302Z,-50
2016-11-19T01:57:49.204Z,-50
2016-11-19T01:58:49.284Z,-50
2016-11-19T01:59:49.161Z,-50
2016-11-19T02:00:49.190Z,-49
2016-11-19T02:01:49.272Z,-50
2016-11-19T02:02:49.150Z,-47
2016-11-19T02:03:49.179Z,-50
2016-11-19T02:04:49.140Z,-50
2016-11-19T02:05:49.267Z,-51
2016-11-19T02:06:49.136Z,-50
2016-11-19T02:07:49.198Z,-51
2016-11-19T02:08:49.151Z,-48
2016-11-19T02:09:49.105Z,-48
2016-11-19T02:10:49.261Z,-48
2016-11-19T02:11:49.242Z,-48
2016-11-19T02:12:49.184Z,-48
2016-11-19T02:13:49.157Z,-48
2016-11-19T02:14:49.262Z,-47
2016-11-19T02:15:49.170Z,-47
2016-11-19T02:16:49.165Z,-47
2016-11-19T02:17:49.172Z,-45
2016-11-19T02:18:49.184Z,-48
2016-11-19T02:19:49.178Z,-47
2016-11-19T02:20:49.176Z,-47
2016-11-19T02:21:49.234Z,-48
2016-11-19T02:22:49.124Z,-48
2016-11-19T02:23:49.153Z,-47
2016-11-19T02:24:49.138Z,-47
2016-11-19T02:25:49.135Z,-48
2016-11-19T02:26:49.180Z,-49
2016-11-19T02:27:49.147Z,-49
2016-11-19T02:28:49.211Z,-49
2016-11-19T02:29:49.215Z,-50
2016-11-19T02:30:49.230Z,-49
2016-11-19T02:31:49.483Z,-48
2016-11-19T02:32:49.144Z,-50
2016-11-19T02:33:49.279Z,-49
2016-11-19T02:34:49.143Z,-48
2016-11-19T02:35:49.195Z,-48
2016-11-19T02:36:49.347Z,-48
2016-11-19T02:37:49.226Z,-46
2016-11-19T02:38:49.093Z,-48
2016-11-19T02:39:50.370Z,-49
2016-11-19T02:40:49.209Z,-49
2016-11-19T02:41:49.160Z,-48
2016-11-19T02:42:49.867Z,-49
2016-11-19T02:43:49.359Z,-51
2016-11-19T02:44:49.147Z,-49
2016-11-19T02:45:49.129Z,-48
2016-11-19T02:46:49.470Z,-48
2016-11-19T02:47:49.476Z,-48
2016-11-19T02:48:49.416Z,-49
2016-11-19T02:49:49.349Z,-48
2016-11-19T02:50:49.110Z,-49
2016-11-19T02:51:49.144Z,-48
2016-11-19T02:52:49.120Z,-48
2016-11-19T02:53:49.155Z,-48
2016-11-19T02:54:49.267Z,-49
2016-11-19T02:55:49.174Z,-47
2016-11-19T02:56:49.224Z,-48
2016-11-19T02:57:49.126Z,-48
2016-11-19T02:58:49.103Z,-48
2016-11-19T02:59:49.261Z,-49
2016-11-19T03:00:49.192Z,-49
2016-11-19T03:01:49.144Z,-50
2016-11-19T03:02:49.115Z,-50
2016-11-19T03:03:49.131Z,-50
2016-11-19T03:04:49.131Z,-50
2016-11-19T03:05:49.532Z,-49
2016-11-19T03:06:49.252Z,-51
2016-11-19T03:07:49.167Z,-50
2016-11-19T03:08:49.175Z,-51
2016-11-19T03:09:49.179Z,-50
2016-11-19T03:10:49.172Z,-50
2016-11-19T03:11:49.222Z,-49
2016-11-19T03:12:49.205Z,-49
2016-11-19T03:13:49.190Z,-50
2016-11-19T03:14:49.180Z,-50
2016-11-19T03:15:49.196Z,-49
2016-11-19T03:16:49.477Z,-50
2016-11-19T03:17:49.218Z,-51
2016-11-19T03:18:49.218Z,-50
2016-11-19T03:19:49.199Z,-50
2016-11-19T03:20:49.215Z,-48
2016-11-19T03:21:49.237Z,-50
2016-11-19T03:22:49.228Z,-51
2016-11-19T03:23:49.381Z,-50
2016-11-19T03:24:49.199Z,-50
2016-11-19T03:25:49.184Z,-50
2016-11-19T03:26:49.442Z,-50
2016-11-19T03:27:49.208Z,-50
2016-11-19T03:28:49.208Z,-51
2016-11-19T03:29:49.219Z,-52
2016-11-19T03:30:49.191Z,-50
2016-11-19T03:31:49.215Z,-50
2016-11-19T03:32:49.162Z,-52
2016-11-19T03:33:49.225Z,-50
2016-11-19T03:34:49.198Z,-50
2016-11-19T03:35:49.315Z,-52
2016-11-19T03:36:49.372Z,-50
2016-11-19T03:37:49.176Z,-50
2016-11-19T03:38:49.195Z,-49
2016-11-19T03:39:49.203Z,-47
2016-11-19T03:40:49.183Z,-49
2016-11-19T03:41:49.206Z,-49
2016-11-19T03:42:49.227Z,-51
2016-11-19T03:43:49.466Z,-50
2016-11-19T03:44:49.405Z,-49
2016-11-19T03:45:49.176Z,-50
2016-11-19T03:46:49.187Z,-51
2016-11-19T03:47:49.286Z,-52
2016-11-19T03:48:49.471Z,-50
2016-11-19T03:49:49.218Z,-50
2016-11-19T03:50:49.184Z,-51
2016-11-19T03:51:49.421Z,-50
2016-11-19T03:52:49.197Z,-50
2016-11-19T03:53:49.197Z,-49
2016-11-19T03:54:49.190Z,-49
2016-11-19T03:55:49.330Z,-50
2016-11-19T03:56:49.469Z,-50
2016-11-19T03:57:49.232Z,-51
2016-11-19T03:58:49.548Z,-51
2016-11-19T03:59:49.417Z,-51
2016-11-19T04:00:49.493Z,-50
2016-11-19T04:01:49.541Z,-53
2016-11-19T04:02:49.212Z,-51
2016-11-19T04:03:49.442Z,-51
2016-11-19T04:04:49.446Z,-52
2016-11-19T04:05:50.101Z,-51
2016-11-19T04:06:49.185Z,-52
2016-11-19T04:07:50.128Z,-50
2016-11-19T04:08:49.924Z,-50
2016-11-19T04:09:49.208Z,-49
2016-11-19T04:10:49.235Z,-50
2016-11-19T04:11:49.363Z,-50
2016-11-19T04:12:49.265Z,-50
2016-11-19T04:13:49.292Z,-49
2016-11-19T04:14:49.206Z,-50
2016-11-19T04:15:49.185Z,-51
2016-11-19T04:16:49.235Z,-51
2016-11-19T04:17:49.359Z,-47
2016-11-19T04:18:49.277Z,-50
2016-11-19T04:19:49.247Z,-50
2016-11-19T04:20:49.306Z,-50
2016-11-19T04:21:49.228Z,-50
2016-11-19T04:22:49.261Z,-50
2016-11-19T04:23:49.348Z,-50
2016-11-19T04:24:49.215Z,-50
2016-11-19T04:25:49.337Z,-50
2016-11-19T04:26:49.308Z,-49
2016-11-19T04:27:49.260Z,-50
2016-11-19T04:28:50.208Z,-50
2016-11-19T04:29:49.225Z,-50
2016-11-19T04:30:49.228Z,-50
2016-11-19T04:31:49.251Z,-49
2016-11-19T04:32:49.263Z,-49
2016-11-19T04:33:49.315Z,-49
2016-11-19T04:34:49.309Z,-50
2016-11-19T04:35:49.260Z,-50
2016-11-19T04:36:49.366Z,-50
2016-11-19T04:37:49.311Z,-50
2016-11-19T04:38:49.295Z,-50
2016-11-19T04:39:49.217Z,-50
2016-11-19T04:40:49.248Z,-50
2016-11-19T04:41:49.278Z,-50
2016-11-19T04:42:49.263Z,-50
2016-11-19T04:43:49.251Z,-50
2016-11-19T04:44:49.251Z,-50
2016-11-19T04:45:49.207Z,-51
2016-11-19T04:46:49.198Z,-50
2016-11-19T04:47:49.568Z,-50
2016-11-19T04:48:49.227Z,-49
2016-11-19T04:49:49.237Z,-47
2016-11-19T04:50:49.221Z,-51
2016-11-19T04:51:49.262Z,-50
2016-11-19T04:52:49.261Z,-50
2016-11-19T04:53:49.223Z,-51
2016-11-19T04:54:49.302Z,-51
2016-11-19T04:55:49.272Z,-50
2016-11-19T04:56:49.246Z,-50
2016-11-19T04:57:49.262Z,-50
2016-11-19T04:58:49.198Z,-51
2016-11-19T04:59:49.199Z,-51
2016-11-19T05:00:49.258Z,-50
2016-11-19T05:01:49.213Z,-50
2016-11-19T05:02:49.370Z,-50
2016-11-19T05:03:49.185Z,-50
2016-11-19T05:04:49.237Z,-50
2016-11-19T05:05:49.253Z,-50
2016-11-19T05:06:49.206Z,-50
2016-11-19T05:07:49.299Z,-49
2016-11-19T05:08:49.248Z,-49
2016-11-19T05:09:49.281Z,-50
2016-11-19T05:10:49.223Z,-50
2016-11-19T05:11:49.238Z,-50
2016-11-19T05:12:49.283Z,-50
2016-11-19T05:13:49.290Z,-51
2016-11-19T05:14:49.205Z,-51
2016-11-19T05:15:49.211Z,-50
2016-11-19T05:16:49.229Z,-49
2016-11-19T05:17:49.879Z,-50
2016-11-19T05:18:49.306Z,-50
2016-11-19T05:19:49.237Z,-50
2016-11-19T05:20:49.278Z,-49
2016-11-19T05:21:49.280Z,-50
2016-11-19T05:22:49.313Z,-50
2016-11-19T05:23:49.322Z,-50
2016-11-19T05:24:49.303Z,-49
2016-11-19T05:25:49.276Z,-50
2016-11-19T05:26:49.267Z,-50
2016-11-19T05:27:49.267Z,-50
2016-11-19T05:28:49.355Z,-50
2016-11-19T05:29:49.316Z,-50
2016-11-19T05:30:49.280Z,-50
2016-11-19T05:31:49.271Z,-49
2016-11-19T05:32:49.324Z,-50
2016-11-19T05:33:49.342Z,-50
2016-11-19T05:34:49.328Z,-50
2016-11-19T05:35:49.297Z,-50
2016-11-19T05:36:49.303Z,-50
2016-11-19T05:37:49.288Z,-51
2016-11-19T05:38:49.366Z,-50
2016-11-19T05:39:49.309Z,-50
2016-11-19T05:40:49.287Z,-50
2016-11-19T05:41:49.303Z,-49
2016-11-19T05:42:49.371Z,-49
2016-11-19T05:43:49.344Z,-50
2016-11-19T05:44:49.295Z,-50
2016-11-19T05:45:49.258Z,-51
2016-11-19T05:46:49.319Z,-50
2016-11-19T05:47:49.274Z,-49
2016-11-19T05:48:49.250Z,-50
2016-11-19T05:49:49.293Z,-51
2016-11-19T05:50:49.292Z,-50
2016-11-19T05:51:49.311Z,-50
2016-11-19T05:52:49.285Z,-47
2016-11-19T05:53:49.314Z,-51
2016-11-19T05:54:49.312Z,-50
2016-11-19T05:55:49.290Z,-47
2016-11-19T05:56:49.283Z,-50
2016-11-19T05:57:49.290Z,-50
2016-11-19T05:58:49.281Z,-50
2016-11-19T05:59:49.273Z,-50
2016-11-19T06:00:49.216Z,-50
2016-11-19T06:01:49.259Z,-50
2016-11-19T06:02:49.257Z,-50
2016-11-19T06:03:49.257Z,-50
2016-11-19T06:04:49.322Z,-49
2016-11-19T06:05:49.292Z,-49
2016-11-19T06:06:49.247Z,-50
2016-11-19T06:07:49.250Z,-50
2016-11-19T06:08:49.286Z,-50
2016-11-19T06:09:49.280Z,-50
2016-11-19T06:10:49.274Z,-50
2016-11-19T06:11:49.279Z,-50
2016-11-19T06:12:49.295Z,-49
2016-11-19T06:13:49.448Z,-50
2016-11-19T06:14:49.459Z,-51
2016-11-19T06:15:49.468Z,-49
2016-11-19T06:16:49.416Z,-50
2016-11-19T06:17:49.492Z,-50
2016-11-19T06:18:49.418Z,-50
2016-11-19T06:19:49.416Z,-50
2016-11-19T06:20:49.974Z,-50
2016-11-19T06:21:49.513Z,-50
2016-11-19T06:22:50.024Z,-50
2016-11-19T06:23:49.368Z,-50
2016-11-19T06:24:49.361Z,-50
2016-11-19T06:25:50.057Z,-50
2016-11-19T06:26:49.438Z,-50
2016-11-19T06:27:49.486Z,-50
2016-11-19T06:28:49.397Z,-49
2016-11-19T06:29:49.374Z,-50
2016-11-19T06:30:49.373Z,-50
2016-11-19T06:31:49.421Z,-50
2016-11-19T06:32:49.998Z,-50
2016-11-19T06:33:49.357Z,-51
2016-11-19T06:34:49.440Z,-50
2016-11-19T06:35:49.389Z,-50
2016-11-19T06:36:49.308Z,-50
2016-11-19T06:37:49.458Z,-50
2016-11-19T06:38:49.307Z,-50
2016-11-19T06:39:49.298Z,-50
2016-11-19T06:40:49.324Z,-50
2016-11-19T06:41:49.351Z,-50
2016-11-19T06:42:49.292Z,-50
2016-11-19T06:43:49.337Z,-50
2016-11-19T06:44:49.311Z,-50
2016-11-19T06:45:49.266Z,-50
2016-11-19T06:46:49.308Z,-50
2016-11-19T06:47:49.346Z,-50
2016-11-19T06:48:49.397Z,-50
2016-11-19T06:49:49.872Z,-50
2016-11-19T06:50:49.391Z,-51
2016-11-19T06:51:49.357Z,-50
2016-11-19T06:52:49.360Z,-50
2016-11-19T06:53:49.392Z,-51
2016-11-19T06:54:49.396Z,-51
2016-11-19T06:55:49.403Z,-49
2016-11-19T06:56:49.369Z,-49
2016-11-19T06:57:49.357Z,-48
2016-11-19T06:58:49.326Z,-50
2016-11-19T06:59:49.323Z,-51
2016-11-19T07:00:49.315Z,-50
2016-11-19T07:01:49.384Z,-50
2016-11-19T07:02:49.363Z,-50
2016-11-19T07:03:49.337Z,-51
2016-11-19T07:04:49.377Z,-50
2016-11-19T07:05:49.359Z,-50
2016-11-19T07:06:49.375Z,-51
2016-11-19T07:07:49.390Z,-49
2016-11-19T07:08:49.302Z,-50
2016-11-19T07:09:49.404Z,-50
2016-11-19T07:10:49.404Z,-51
2016-11-19T07:11:49.382Z,-50
2016-11-19T07:12:49.382Z,-50
2016-11-19T07:13:49.409Z,-51
2016-11-19T07:14:49.927Z,-50
2016-11-19T07:15:49.457Z,-50
2016-11-19T07:16:49.441Z,-50
2016-11-19T07:17:49.373Z,-50
2016-11-19T07:18:49.358Z,-51
2016-11-19T07:19:49.342Z,-50
2016-11-19T07:20:49.391Z,-50
2016-11-19T07:21:49.361Z,-50
2016-11-19T07:22:49.343Z,-49
2016-11-19T07:23:49.387Z,-50
2016-11-19T07:24:49.388Z,-50
2016-11-19T07:25:49.421Z,-50
2016-11-19T07:26:49.650Z,-51
2016-11-19T07:27:49.359Z,-50
2016-11-19T07:28:49.388Z,-50
2016-11-19T07:29:49.350Z,-50
2016-11-19T07:30:49.323Z,-51
2016-11-19T07:31:49.319Z,-51
2016-11-19T07:32:49.311Z,-50
2016-11-19T07:33:49.383Z,-50
2016-11-19T07:34:49.338Z,-51
2016-11-19T07:35:49.381Z,-51
2016-11-19T07:36:49.372Z,-51
2016-11-19T07:37:49.349Z,-50
2016-11-19T07:38:49.389Z,-51
2016-11-19T07:39:49.340Z,-50
2016-11-19T07:40:49.376Z,-50
2016-11-19T07:41:49.366Z,-50
2016-11-19T07:42:56.425Z,-47
2016-11-19T07:43:49.372Z,-47
2016-11-19T07:44:49.409Z,-50
2016-11-19T07:45:49.333Z,-50
2016-11-19T07:46:49.405Z,-50
2016-11-19T07:47:49.409Z,-49
2016-11-19T07:48:49.329Z,-50
2016-11-19T07:49:49.352Z,-50
2016-11-19T07:50:49.437Z,-50
2016-11-19T07:51:50.075Z,-50
2016-11-19T07:52:49.462Z,-50
2016-11-19T07:53:49.365Z,-51
2016-11-19T07:54:49.345Z,-50
2016-11-19T07:55:49.348Z,-50
2016-11-19T07:56:49.328Z,-50
2016-11-19T07:57:49.364Z,-51
2016-11-19T07:58:49.327Z,-51
2016-11-19T07:59:49.505Z,-51
2016-11-19T08:00:49.458Z,-51
2016-11-19T08:01:49.335Z,-51
2016-11-19T08:02:49.406Z,-50
2016-11-19T08:03:49.324Z,-50
2016-11-19T08:04:49.435Z,-50
2016-11-19T08:05:49.582Z,-50
2016-11-19T08:06:49.376Z,-50
2016-11-19T08:07:49.436Z,-50
2016-11-19T08:08:50.120Z,-47
2016-11-19T08:09:49.640Z,-50
2016-11-19T08:10:49.440Z,-50
2016-11-19T08:11:49.596Z,-50
2016-11-19T08:12:49.452Z,-50
2016-11-19T08:13:49.706Z,-49
2016-11-19T08:14:49.382Z,-50
2016-11-19T08:15:49.427Z,-49
2016-11-19T08:16:49.429Z,-51
2016-11-19T08:17:49.562Z,-51
2016-11-19T08:18:49.392Z,-51
2016-11-19T08:19:49.351Z,-50
2016-11-19T08:20:49.349Z,-50
2016-11-19T08:21:49.490Z,-50
2016-11-19T08:22:49.993Z,-50
2016-11-19T08:23:49.425Z,-51
2016-11-19T08:24:49.786Z,-51
2016-11-19T08:25:49.745Z,-50
2016-11-19T08:26:49.350Z,-51
2016-11-19T08:27:49.414Z,-50
2016-11-19T08:28:49.494Z,-50
2016-11-19T08:29:49.401Z,-50
2016-11-19T08:30:49.404Z,-51
2016-11-19T08:31:49.393Z,-51
2016-11-19T08:32:49.414Z,-51
2016-11-19T08:33:49.447Z,-50
2016-11-19T08:34:49.386Z,-48
2016-11-19T08:35:49.522Z,-50
2016-11-19T08:36:49.401Z,-50
2016-11-19T08:37:49.380Z,-50
2016-11-19T08:38:49.410Z,-47
2016-11-19T08:39:49.417Z,-50
2016-11-19T08:40:49.411Z,-51
2016-11-19T08:41:49.402Z,-50
2016-11-19T08:42:49.399Z,-49
2016-11-19T08:43:49.412Z,-50
2016-11-19T08:44:49.397Z,-50
2016-11-19T08:45:49.420Z,-50
2016-11-19T08:46:49.410Z,-49
2016-11-19T08:47:49.386Z,-49
2016-11-19T08:48:49.446Z,-50
2016-11-19T08:49:49.424Z,-50
2016-11-19T08:50:49.409Z,-50
2016-11-19T08:51:49.386Z,-50
2016-11-19T08:52:49.414Z,-50
2016-11-19T08:53:49.433Z,-50
2016-11-19T08:54:49.377Z,-50
2016-11-19T08:55:49.383Z,-51
2016-11-19T08:56:49.392Z,-51
2016-11-19T08:57:49.533Z,-50
2016-11-19T08:58:54.038Z,-49
2016-11-19T08:59:57.180Z,-49
2016-11-19T09:00:49.415Z,-51
2016-11-19T09:01:49.499Z,-50
2016-11-19T09:02:49.505Z,-51
2016-11-19T09:03:49.425Z,-50
2016-11-19T09:04:49.420Z,-51
2016-11-19T09:05:49.411Z,-51
2016-11-19T09:06:49.379Z,-50
2016-11-19T09:07:49.455Z,-50
2016-11-19T09:08:49.478Z,-56
2016-11-19T09:09:49.643Z,-57
2016-11-19T09:10:49.397Z,-50
2016-11-19T09:11:49.408Z,-51
2016-11-19T09:12:49.393Z,-51
2016-11-19T09:13:49.435Z,-51
2016-11-19T09:14:49.459Z,-50
2016-11-19T09:15:49.397Z,-50
2016-11-19T09:16:49.418Z,-50
2016-11-19T09:17:49.424Z,-58
2016-11-19T09:18:50.756Z,-56
2016-11-19T09:19:49.466Z,-59
2016-11-19T09:21:03.991Z,-55
2016-11-19T09:22:01.095Z,-58
2016-11-19T09:23:02.213Z,-50
2016-11-19T09:23:57.598Z,-48
2016-11-19T09:24:57.171Z,-49
2016-11-19T09:26:02.434Z,-50
2016-11-19T09:27:03.074Z,-50
2016-11-19T09:28:03.655Z,-50
2016-11-19T09:29:02.448Z,-51
2016-11-19T09:30:02.236Z,-49
2016-11-19T09:31:03.295Z,-49
2016-11-19T09:32:04.564Z,-49
2016-11-19T09:33:03.777Z,-51
2016-11-19T09:34:03.831Z,-51
2016-11-19T09:35:02.740Z,-50
2016-11-19T09:36:03.134Z,-50
2016-11-19T09:37:03.806Z,-50
2016-11-19T09:38:04.411Z,-49
2016-11-19T09:39:04.612Z,-49
2016-11-19T09:40:04.755Z,-49
2016-11-19T09:40:56.740Z,-50
2016-11-19T09:42:01.126Z,-57
2016-11-19T09:43:02.538Z,-54
2016-11-19T09:44:03.891Z,-56
2016-11-19T09:45:01.024Z,-56
2016-11-19T09:46:00.038Z,-55
2016-11-19T09:47:02.074Z,-57
2016-11-19T09:47:49.817Z,-60
2016-11-19T09:48:49.508Z,-56
2016-11-19T09:49:49.493Z,-60
2016-11-19T09:50:49.447Z,-56
2016-11-19T09:51:49.467Z,-58
2016-11-19T09:52:49.449Z,-58
2016-11-19T09:53:49.486Z,-56
2016-11-19T09:54:49.429Z,-50
2016-11-19T09:55:49.513Z,-49
2016-11-19T09:56:49.419Z,-49
2016-11-19T09:57:49.429Z,-48
2016-11-19T09:58:50.097Z,-48
2016-11-19T09:59:49.459Z,-49
2016-11-19T10:00:49.490Z,-50
2016-11-19T10:01:49.455Z,-49
2016-11-19T10:02:49.468Z,-48
2016-11-19T10:03:49.470Z,-49
2016-11-19T10:04:49.485Z,-50
2016-11-19T10:05:49.415Z,-49
2016-11-19T10:06:49.524Z,-49
2016-11-19T10:07:50.351Z,-48
2016-11-19T10:08:49.956Z,-48
2016-11-19T10:09:49.768Z,-46
2016-11-19T10:10:50.472Z,-47
2016-11-19T10:11:49.499Z,-46
2016-11-19T10:12:50.603Z,-49
2016-11-19T10:13:50.080Z,-49
2016-11-19T10:14:49.479Z,-50
2016-11-19T10:15:49.495Z,-51
2016-11-19T10:16:49.467Z,-49
2016-11-19T10:17:49.492Z,-61
2016-11-19T10:18:52.387Z,-56
2016-11-19T10:19:49.981Z,-48
2016-11-19T10:20:49.476Z,-47
2016-11-19T10:21:50.189Z,-55
2016-11-19T10:22:50.157Z,-53
2016-11-19T10:23:49.486Z,-55
2016-11-19T10:24:49.494Z,-55
2016-11-19T10:25:50.573Z,-56
2016-11-19T10:26:50.253Z,-57
2016-11-19T10:27:49.467Z,-56
2016-11-19T10:28:50.781Z,-58
2016-11-19T10:29:49.498Z,-57
2016-11-19T10:30:49.533Z,-59
2016-11-19T10:31:49.481Z,-56
2016-11-19T10:32:49.495Z,-55
2016-11-19T10:33:49.597Z,-57
2016-11-19T10:34:49.928Z,-55
2016-11-19T10:35:49.524Z,-48
2016-11-19T10:36:49.677Z,-47
2016-11-19T10:37:49.497Z,-48
2016-11-19T10:38:49.508Z,-47
2016-11-19T10:39:49.542Z,-47
2016-11-19T10:40:50.307Z,-49
2016-11-19T10:41:50.148Z,-50
2016-11-19T10:42:49.519Z,-50
2016-11-19T10:43:49.712Z,-51
2016-11-19T10:44:50.084Z,-50
2016-11-19T10:45:49.495Z,-51
2016-11-19T10:46:49.566Z,-51
2016-11-19T10:47:50.784Z,-50
2016-11-19T10:48:49.561Z,-51
2016-11-19T10:49:50.956Z,-50
2016-11-19T10:50:50.438Z,-50
2016-11-19T10:51:49.611Z,-51
2016-11-19T10:52:49.501Z,-52
2016-11-19T10:53:49.563Z,-50
2016-11-19T10:54:49.572Z,-50
2016-11-19T10:55:49.575Z,-50
2016-11-19T10:56:49.634Z,-50
2016-11-19T10:57:49.589Z,-50
2016-11-19T10:58:49.580Z,-50
2016-11-19T10:59:49.550Z,-52
2016-11-19T11:00:49.995Z,-49
2016-11-19T11:01:49.589Z,-49
2016-11-19T11:02:49.688Z,-48
2016-11-19T11:03:49.527Z,-47
2016-11-19T11:04:49.566Z,-50
2016-11-19T11:05:49.641Z,-51
2016-11-19T11:06:49.531Z,-51
2016-11-19T11:07:49.549Z,-51
2016-11-19T11:08:49.559Z,-49
2016-11-19T11:09:49.570Z,-50
2016-11-19T11:10:49.523Z,-50
2016-11-19T11:11:49.556Z,-50
2016-11-19T11:12:49.530Z,-50
2016-11-19T11:13:49.636Z,-49
2016-11-19T11:14:49.575Z,-51
2016-11-19T11:15:49.741Z,-50
2016-11-19T11:16:49.662Z,-54
2016-11-19T11:17:49.597Z,-49
2016-11-19T11:18:49.614Z,-49
2016-11-19T11:19:49.534Z,-50
2016-11-19T11:20:49.540Z,-50
2016-11-19T11:21:49.521Z,-50
2016-11-19T11:22:49.605Z,-49
2016-11-19T11:23:49.526Z,-50
2016-11-19T11:24:49.548Z,-50
2016-11-19T11:25:50.209Z,-49
2016-11-19T11:26:49.500Z,-50
2016-11-19T11:27:50.106Z,-48
2016-11-19T11:28:49.560Z,-50
2016-11-19T11:29:49.610Z,-50
2016-11-19T11:30:49.646Z,-53
2016-11-19T11:31:50.151Z,-52
2016-11-19T11:32:50.462Z,-56
2016-11-19T11:33:49.763Z,-54
2016-11-19T11:34:49.580Z,-54
2016-11-19T11:35:49.574Z,-53
2016-11-19T11:36:49.991Z,-52
2016-11-19T11:37:49.586Z,-50
2016-11-19T11:38:49.539Z,-50
2016-11-19T11:39:50.549Z,-48
2016-11-19T11:40:49.559Z,-47
2016-11-19T11:41:49.542Z,-49
2016-11-19T11:42:50.184Z,-48
2016-11-19T11:43:49.521Z,-50
2016-11-19T11:44:50.112Z,-50
2016-11-19T11:45:49.619Z,-50
2016-11-19T11:46:49.624Z,-50
2016-11-19T11:47:49.829Z,-50
2016-11-19T11:48:50.531Z,-50
2016-11-19T11:49:50.478Z,-50
2016-11-19T11:50:49.545Z,-51
2016-11-19T11:51:49.684Z,-51
2016-11-19T11:52:49.848Z,-55
2016-11-19T11:53:50.102Z,-50
2016-11-19T11:54:49.538Z,-50
2016-11-19T11:55:49.535Z,-51
2016-11-19T11:56:49.711Z,-58
2016-11-19T11:57:50.060Z,-60
2016-11-19T11:58:49.659Z,-56
2016-11-19T11:59:49.677Z,-55
2016-11-19T12:00:49.600Z,-57
2016-11-19T12:01:49.794Z,-49
2016-11-19T12:02:49.581Z,-57
2016-11-19T12:03:49.635Z,-58
2016-11-19T12:04:49.547Z,-57
2016-11-19T12:05:49.556Z,-55
2016-11-19T12:06:50.016Z,-58
2016-11-19T12:07:49.566Z,-59
2016-11-19T12:08:49.723Z,-51
2016-11-19T12:09:49.523Z,-52
2016-11-19T12:10:49.536Z,-49
2016-11-19T12:11:50.317Z,-50
2016-11-19T12:12:49.635Z,-52
2016-11-19T12:13:50.476Z,-49
2016-11-19T12:14:50.389Z,-52
2016-11-19T12:15:50.079Z,-50
2016-11-19T12:16:50.921Z,-52
2016-11-19T12:18:03.539Z,-47
2016-11-19T12:18:49.990Z,-48
2016-11-19T12:19:49.923Z,-47
2016-11-19T12:20:49.568Z,-47
2016-11-19T12:21:49.760Z,-48
2016-11-19T12:22:49.872Z,-49
2016-11-19T12:23:49.644Z,-48
2016-11-19T12:24:49.515Z,-49
2016-11-19T12:25:49.807Z,-49
2016-11-19T12:26:50.442Z,-48
2016-11-19T12:27:50.901Z,-48
2016-11-19T12:28:50.496Z,-48
2016-11-19T12:29:49.554Z,-48
2016-11-19T12:30:49.788Z,-48
2016-11-19T12:31:49.598Z,-48
2016-11-19T12:32:49.583Z,-48
2016-11-19T12:33:50.853Z,-48
2016-11-19T12:34:49.573Z,-49
2016-11-19T12:35:49.731Z,-50
2016-11-19T12:36:49.656Z,-49
2016-11-19T12:37:49.788Z,-50
2016-11-19T12:38:49.718Z,-50
2016-11-19T12:39:49.679Z,-50
2016-11-19T12:40:49.852Z,-50
2016-11-19T12:41:49.897Z,-50
2016-11-19T12:42:50.715Z,-49
2016-11-19T12:43:49.775Z,-49
2016-11-19T12:44:51.298Z,-52
2016-11-19T12:45:49.748Z,-50
2016-11-19T12:46:49.885Z,-50
2016-11-19T12:47:49.907Z,-50
2016-11-19T12:48:49.737Z,-50
2016-11-19T12:49:55.107Z,-48
2016-11-19T12:50:49.552Z,-49
2016-11-19T12:51:49.708Z,-47
2016-11-19T12:52:49.550Z,-49
2016-11-19T12:53:49.696Z,-49
2016-11-19T12:54:49.585Z,-46
2016-11-19T12:55:49.579Z,-50
2016-11-19T12:56:50.278Z,-49
2016-11-19T12:57:49.708Z,-50
2016-11-19T12:58:49.566Z,-49
2016-11-19T12:59:49.819Z,-49
2016-11-19T13:00:49.569Z,-49
2016-11-19T13:01:49.542Z,-49
2016-11-19T13:02:50.224Z,-50
2016-11-19T13:03:49.598Z,-50
2016-11-19T13:04:49.551Z,-49
2016-11-19T13:05:50.334Z,-48
2016-11-19T13:06:49.524Z,-49
2016-11-19T13:07:49.659Z,-49
2016-11-19T13:08:49.568Z,-49
2016-11-19T13:09:49.618Z,-49
2016-11-19T13:10:49.563Z,-49
2016-11-19T13:11:49.556Z,-50
2016-11-19T13:12:49.569Z,-50
2016-11-19T13:13:49.577Z,-49
2016-11-19T13:14:50.294Z,-50
2016-11-19T13:15:50.206Z,-51
2016-11-19T13:16:50.048Z,-49
2016-11-19T13:17:50.615Z,-48
2016-11-19T13:18:49.614Z,-49
2016-11-19T13:19:49.636Z,-47
2016-11-19T13:20:49.613Z,-47
2016-11-19T13:21:49.661Z,-46
2016-11-19T13:22:49.665Z,-48
2016-11-19T13:23:49.632Z,-48
2016-11-19T13:24:49.616Z,-49
2016-11-19T13:25:49.642Z,-49
2016-11-19T13:26:49.633Z,-48
2016-11-19T13:27:49.664Z,-48
2016-11-19T13:28:49.632Z,-50
2016-11-19T13:29:49.583Z,-48
2016-11-19T13:30:49.690Z,-48
2016-11-19T13:31:49.697Z,-48
2016-11-19T13:32:49.671Z,-47
2016-11-19T13:33:49.590Z,-48
2016-11-19T13:34:49.668Z,-48
2016-11-19T13:35:49.617Z,-48
2016-11-19T13:36:49.569Z,-48
2016-11-19T13:37:49.749Z,-50
2016-11-19T13:38:49.634Z,-48
2016-11-19T13:39:50.002Z,-47
2016-11-19T13:40:49.964Z,-45
2016-11-19T13:41:49.647Z,-58
2016-11-19T13:42:50.220Z,-47
2016-11-19T13:43:49.722Z,-48
2016-11-19T13:44:49.677Z,-54
2016-11-19T13:45:49.667Z,-47
2016-11-19T13:46:49.663Z,-47